createdAt,value
2023-03-24T00:02:05.207Z,11.34
2023-03-24T00:04:34.143Z,11.31
2023-03-24T00:07:03.416Z,11.38
2023-03-24T00:09:32.467Z,11.18
2023-03-24T00:12:00.906Z,11.11
2023-03-24T00:14:30.788Z,11.40
2023-03-24T00:17:00.521Z,11.37
2023-03-24T00:19:29.101Z,11.34
2023-03-24T00:22:00.643Z,11.39
2023-03-24T00:24:29.019Z,11.44
2023-03-24T00:26:57.867Z,11.25
2023-03-24T00:29:26.917Z,11.42
2023-03-24T00:31:55.728Z,11.42
2023-03-24T00:34:26.183Z,11.37
2023-03-24T00:36:54.533Z,11.49
2023-03-24T00:39:22.945Z,11.43
2023-03-24T00:41:51.325Z,11.46
2023-03-24T00:44:19.643Z,11.39
2023-03-24T00:46:57.147Z,11.36
2023-03-24T00:52:27.435Z,11.17
2023-03-24T00:54:58.874Z,11.18
2023-03-24T00:57:29.959Z,11.24
2023-03-24T00:59:59.008Z,11.26
2023-03-24T01:02:31.459Z,11.07
2023-03-24T01:05:02.410Z,11.24
2023-03-24T01:07:32.244Z,11.21
2023-03-24T01:10:00.770Z,10.98
2023-03-24T01:12:32.413Z,11.20
2023-03-24T01:15:02.958Z,11.14
2023-03-24T01:17:31.191Z,11.09
2023-03-24T01:20:00.237Z,11.28
2023-03-24T01:22:30.863Z,11.23
2023-03-24T01:25:03.188Z,11.27
2023-03-24T01:27:31.904Z,11.20
2023-03-24T01:30:01.859Z,11.11
2023-03-24T01:32:33.553Z,11.25
2023-03-24T01:35:01.826Z,11.24
2023-03-24T01:37:30.135Z,11.18
2023-03-24T01:39:58.756Z,11.15
2023-03-24T01:42:29.865Z,11.24
2023-03-24T01:45:02.500Z,11.07
2023-03-24T01:47:30.722Z,11.15
2023-03-24T01:50:02.934Z,11.15
2023-03-24T01:52:34.512Z,11.21
2023-03-24T01:55:08.075Z,11.15
2023-03-24T01:57:41.735Z,11.26
2023-03-24T02:00:12.724Z,11.29
2023-03-24T02:02:44.196Z,11.27
2023-03-24T02:05:14.722Z,11.33
2023-03-24T02:07:52.982Z,11.40
2023-03-24T02:10:24.717Z,11.32
2023-03-24T02:12:54.632Z,11.31
2023-03-24T02:15:25.455Z,11.25
2023-03-24T02:18:05.014Z,11.35
2023-03-24T02:21:02.482Z,11.30
2023-03-24T02:23:58.810Z,11.23
2023-03-24T02:26:57.318Z,11.27
2023-03-24T02:29:59.837Z,11.12
2023-03-24T02:32:59.726Z,11.24
2023-03-24T02:36:03.750Z,11.21
2023-03-24T02:39:13.879Z,11.27
2023-03-24T02:41:51.639Z,11.16
2023-03-24T02:44:30.459Z,11.12
2023-03-24T02:47:05.411Z,11.27
2023-03-24T02:49:43.004Z,11.07
2023-03-24T02:52:20.860Z,11.10
2023-03-24T02:54:54.558Z,11.06
2023-03-24T02:57:31.811Z,11.16
2023-03-24T03:00:04.618Z,11.04
2023-03-24T03:02:37.047Z,11.08
2023-03-24T03:05:08.546Z,11.17
2023-03-24T03:07:39.079Z,11.10
2023-03-24T03:10:16.531Z,11.00
2023-03-24T03:12:50.675Z,11.01
2023-03-24T03:15:24.616Z,10.83
2023-03-24T03:17:59.394Z,10.85
2023-03-24T03:20:34.961Z,10.97
2023-03-24T03:23:08.487Z,11.10
2023-03-24T03:25:42.328Z,11.09
2023-03-24T03:28:18.132Z,11.17
2023-03-24T03:30:52.305Z,11.15
2023-03-24T03:33:27.602Z,11.29
2023-03-24T03:36:00.062Z,11.23
2023-03-24T03:38:37.384Z,11.18
2023-03-24T03:41:09.019Z,11.37
2023-03-24T03:43:41.236Z,11.38
2023-03-24T03:46:09.708Z,11.43
2023-03-24T03:48:39.189Z,11.53
2023-03-24T03:51:13.725Z,11.49
2023-03-24T03:53:49.128Z,11.63
2023-03-24T03:56:20.803Z,11.48
2023-03-24T03:58:51.093Z,11.39
2023-03-24T04:01:22.181Z,11.43
2023-03-24T04:04:20.443Z,11.49
2023-03-24T04:06:58.843Z,11.73
2023-03-24T04:09:38.796Z,11.67
2023-03-24T04:12:25.778Z,11.71
2023-03-24T04:15:17.341Z,11.84
2023-03-24T04:18:01.069Z,11.94
2023-03-24T04:20:38.638Z,11.83
2023-03-24T04:23:18.582Z,11.88
2023-03-24T04:25:56.920Z,12.06
2023-03-24T04:28:31.290Z,12.14
2023-03-24T04:31:07.440Z,12.11
2023-03-24T04:33:42.737Z,12.04
2023-03-24T04:36:19.409Z,12.13
2023-03-24T04:38:53.422Z,12.20
2023-03-24T04:41:25.795Z,12.29
2023-03-24T04:43:58.495Z,12.28
2023-03-24T04:46:28.736Z,12.29
2023-03-24T04:48:57.054Z,12.31
2023-03-24T04:51:30.192Z,12.29
2023-03-24T04:53:58.702Z,12.33
2023-03-24T04:56:38.126Z,12.34
2023-03-24T04:59:08.362Z,12.35
2023-03-24T05:01:39.352Z,12.33
2023-03-24T05:04:08.482Z,12.41
2023-03-24T05:06:36.839Z,12.34
2023-03-24T05:09:05.741Z,12.29
2023-03-24T05:11:34.567Z,12.28
2023-03-24T05:14:02.885Z,12.35
2023-03-24T05:16:31.594Z,12.44
2023-03-24T05:19:01.959Z,12.29
2023-03-24T05:21:31.872Z,12.38
2023-03-24T05:24:02.132Z,12.31
2023-03-24T05:26:33.027Z,12.38
2023-03-24T05:29:01.415Z,12.32
2023-03-24T05:31:29.828Z,12.25
2023-03-24T05:33:58.393Z,12.30
2023-03-24T05:36:28.886Z,12.25
2023-03-24T05:38:57.152Z,12.27
2023-03-24T05:41:25.645Z,12.29
2023-03-24T05:43:53.939Z,12.06
2023-03-24T05:46:24.523Z,12.19
2023-03-24T05:48:54.081Z,12.11
2023-03-24T05:51:22.273Z,12.08
2023-03-24T05:53:52.546Z,12.15
2023-03-24T05:56:20.795Z,12.13
2023-03-24T05:58:49.105Z,12.18
2023-03-24T06:01:18.507Z,12.07
2023-03-24T06:03:47.063Z,12.33
2023-03-24T06:06:16.963Z,12.30
2023-03-24T06:08:46.348Z,11.99
2023-03-24T06:11:17.085Z,12.23
2023-03-24T06:13:45.409Z,12.32
2023-03-24T06:16:13.997Z,12.23
2023-03-24T06:18:42.868Z,12.17
2023-03-24T06:21:11.061Z,12.21
2023-03-24T06:23:39.517Z,12.24
2023-03-24T06:26:11.717Z,12.45
2023-03-24T06:28:42.383Z,12.47
2023-03-24T06:31:15.260Z,12.46
2023-03-24T06:33:43.869Z,12.37
2023-03-24T06:36:13.909Z,12.39
2023-03-24T06:38:42.913Z,12.33
2023-03-24T06:41:11.600Z,12.23
2023-03-24T06:43:41.362Z,12.31
2023-03-24T06:46:10.351Z,12.41
2023-03-24T06:48:39.848Z,12.53
2023-03-24T06:51:09.285Z,12.43
2023-03-24T06:53:37.939Z,12.52
2023-03-24T06:56:06.817Z,12.39
2023-03-24T06:58:35.902Z,12.39
2023-03-24T07:01:05.649Z,12.39
2023-03-24T07:03:34.242Z,12.48
2023-03-24T07:06:02.616Z,12.53
2023-03-24T07:08:38.164Z,12.49
2023-03-24T07:11:08.966Z,12.41
2023-03-24T07:13:37.740Z,12.33
2023-03-24T07:16:08.606Z,12.53
2023-03-24T07:18:37.185Z,12.36
2023-03-24T07:21:05.906Z,12.56
2023-03-24T07:23:34.356Z,12.62
2023-03-24T07:26:02.705Z,12.48
2023-03-24T07:28:31.100Z,12.57
2023-03-24T07:30:59.774Z,12.61
2023-03-24T07:33:30.053Z,12.66
2023-03-24T07:35:59.778Z,12.77
2023-03-24T07:38:31.710Z,12.78
2023-03-24T07:41:00.485Z,12.63
2023-03-24T07:43:28.821Z,12.84
2023-03-24T07:45:57.243Z,12.92
2023-03-24T07:48:25.646Z,12.90
2023-03-24T07:50:55.586Z,12.95
2023-03-24T07:53:24.157Z,12.75
2023-03-24T07:55:52.839Z,12.72
2023-03-24T07:58:21.569Z,12.75
2023-03-24T08:00:50.123Z,12.84
2023-03-24T08:03:18.819Z,12.93
2023-03-24T08:05:47.471Z,12.93
2023-03-24T08:08:17.219Z,13.00
2023-03-24T08:10:46.838Z,12.92
2023-03-24T08:13:15.176Z,12.82
2023-03-24T08:15:44.218Z,12.68
2023-03-24T08:18:12.773Z,12.82
2023-03-24T08:20:41.066Z,12.93
2023-03-24T08:23:09.303Z,12.94
2023-03-24T08:25:39.034Z,12.94
2023-03-24T08:28:07.539Z,12.87
2023-03-24T08:30:36.465Z,12.83
2023-03-24T08:33:06.146Z,12.68
2023-03-24T08:35:39.169Z,12.61
2023-03-24T08:38:08.040Z,12.66
2023-03-24T08:40:38.849Z,12.60
2023-03-24T08:43:09.912Z,12.73
2023-03-24T08:45:38.393Z,12.71
2023-03-24T08:48:08.856Z,12.63
2023-03-24T08:50:39.571Z,12.75
2023-03-24T08:53:08.213Z,12.77
2023-03-24T08:55:37.953Z,12.73
2023-03-24T08:58:10.274Z,12.67
2023-03-24T09:00:38.501Z,12.63
2023-03-24T09:03:06.951Z,12.57
2023-03-24T09:05:54.611Z,12.69
2023-03-24T09:08:22.871Z,12.56
2023-03-24T09:10:51.773Z,12.70
2023-03-24T09:13:22.273Z,12.72
2023-03-24T09:15:53.054Z,12.69
2023-03-24T09:18:22.939Z,12.46
2023-03-24T09:20:52.418Z,12.51
2023-03-24T09:23:21.361Z,12.79
2023-03-24T09:25:50.748Z,12.75
2023-03-24T09:28:21.245Z,12.80
2023-03-24T09:30:50.417Z,13.05
2023-03-24T09:33:19.471Z,12.90
2023-03-24T09:35:47.973Z,12.84
2023-03-24T09:38:16.579Z,12.87
2023-03-24T09:40:45.038Z,12.77
2023-03-24T09:43:24.815Z,12.64
2023-03-24T09:45:55.925Z,12.60
2023-03-24T09:48:33.156Z,12.67
2023-03-24T09:51:06.063Z,12.52
2023-03-24T09:53:41.910Z,12.50
2023-03-24T09:56:14.760Z,12.47
2023-03-24T09:58:47.539Z,12.71
2023-03-24T10:01:16.932Z,12.66
2023-03-24T10:03:46.809Z,12.60
2023-03-24T10:06:23.317Z,12.62
2023-03-24T10:09:00.385Z,12.52
2023-03-24T10:11:37.590Z,12.33
2023-03-24T10:14:19.957Z,12.41
2023-03-24T10:16:54.267Z,12.52
2023-03-24T10:19:30.939Z,12.48
2023-03-24T10:22:05.726Z,12.42
2023-03-24T10:24:40.151Z,12.38
2023-03-24T10:27:16.176Z,12.42
2023-03-24T10:29:47.532Z,12.29
2023-03-24T10:32:19.872Z,12.24
2023-03-24T10:34:55.724Z,12.15
2023-03-24T10:37:24.359Z,12.00
2023-03-24T10:39:56.562Z,12.03
2023-03-24T10:42:27.810Z,11.90
2023-03-24T10:44:58.027Z,11.84
2023-03-24T10:47:30.145Z,11.82
2023-03-24T10:50:14.208Z,11.77
2023-03-24T10:52:49.033Z,11.85
2023-03-24T10:55:19.928Z,11.91
2023-03-24T10:57:51.212Z,12.00
2023-03-24T11:00:27.026Z,12.13
2023-03-24T11:02:59.145Z,12.16
2023-03-24T11:05:33.649Z,12.13
2023-03-24T11:08:16.188Z,11.85
2023-03-24T11:10:44.773Z,12.06
2023-03-24T11:13:19.955Z,12.24
2023-03-24T11:15:59.018Z,12.40
2023-03-24T11:18:27.282Z,12.44
2023-03-24T11:21:00.913Z,12.40
2023-03-24T11:23:31.872Z,12.40
2023-03-24T11:26:10.821Z,12.60
2023-03-24T11:28:42.631Z,12.68
2023-03-24T11:31:18.518Z,12.66
2023-03-24T11:33:51.165Z,12.65
2023-03-24T11:36:47.837Z,12.67
2023-03-24T11:39:20.331Z,12.88
2023-03-24T11:42:03.187Z,12.77
2023-03-24T11:44:34.618Z,12.72
2023-03-24T11:47:11.252Z,12.73
2023-03-24T11:49:44.645Z,12.76
2023-03-24T11:52:21.902Z,12.73
2023-03-24T11:54:50.338Z,12.64
2023-03-24T11:57:29.409Z,12.58
2023-03-24T12:00:02.409Z,12.61
2023-03-24T12:02:48.949Z,12.63
2023-03-24T12:05:27.845Z,12.65
2023-03-24T12:08:25.024Z,12.51
2023-03-24T12:11:05.327Z,12.77
2023-03-24T12:13:37.871Z,12.77
2023-03-24T12:16:27.013Z,12.76
2023-03-24T12:19:35.553Z,12.89
2023-03-24T12:22:15.406Z,12.89
2023-03-24T12:24:58.422Z,12.77
2023-03-24T12:27:37.558Z,12.55
2023-03-24T12:30:15.758Z,12.61
2023-03-24T12:32:58.008Z,12.66
2023-03-24T12:35:49.353Z,12.73
2023-03-24T12:38:39.820Z,12.63
2023-03-24T12:41:46.783Z,12.51
2023-03-24T12:44:44.470Z,12.60
2023-03-24T12:47:35.480Z,12.39
2023-03-24T12:50:25.630Z,11.91
2023-03-24T12:53:14.357Z,11.95
2023-03-24T12:55:47.021Z,11.39
2023-03-24T12:58:20.790Z,11.72
2023-03-24T13:00:59.861Z,11.31
2023-03-24T13:03:38.861Z,11.18
2023-03-24T13:06:17.657Z,11.30
2023-03-24T13:08:56.812Z,10.96
2023-03-24T13:11:36.249Z,11.11
2023-03-24T13:14:15.532Z,11.14
2023-03-24T13:16:47.685Z,11.46
2023-03-24T13:19:21.655Z,11.73
2023-03-24T13:21:52.808Z,11.95
2023-03-24T13:24:24.099Z,11.71
2023-03-24T13:27:03.085Z,11.91
2023-03-24T13:29:57.123Z,11.75
2023-03-24T13:32:38.324Z,12.04
2023-03-24T13:35:19.773Z,12.08
2023-03-24T13:37:52.959Z,11.96
2023-03-24T13:40:25.798Z,11.88
2023-03-24T13:42:57.149Z,11.97
2023-03-24T13:45:44.807Z,11.57
2023-03-24T13:48:31.247Z,11.54
2023-03-24T13:51:02.489Z,11.67
2023-03-24T13:53:45.087Z,11.56
2023-03-24T13:56:25.603Z,11.50
2023-03-24T13:59:24.716Z,11.72
2023-03-24T14:02:13.444Z,11.27
2023-03-24T14:04:49.021Z,11.61
2023-03-24T14:07:43.936Z,11.30
2023-03-24T14:10:46.813Z,11.69
2023-03-24T14:13:47.196Z,11.79
2023-03-24T14:16:45.530Z,11.69
2023-03-24T14:19:25.624Z,11.70
2023-03-24T14:21:58.302Z,11.92
2023-03-24T14:24:57.465Z,12.00
2023-03-24T14:27:50.113Z,11.96
2023-03-24T14:30:50.085Z,11.32
2023-03-24T14:33:39.170Z,11.36
2023-03-24T14:36:22.211Z,11.45
2023-03-24T14:39:45.144Z,12.00
2023-03-24T14:43:02.477Z,12.21
2023-03-24T14:46:02.672Z,12.03
2023-03-24T14:49:21.034Z,11.98
2023-03-24T14:52:20.379Z,11.33
2023-03-24T14:55:10.006Z,11.95
2023-03-24T14:57:58.198Z,11.98
2023-03-24T15:01:07.759Z,11.89
2023-03-24T15:03:54.395Z,11.02
2023-03-24T15:06:36.222Z,11.20
2023-03-24T15:09:20.293Z,12.10
2023-03-24T15:12:15.392Z,11.97
2023-03-24T15:14:55.570Z,11.90
2023-03-24T15:17:50.124Z,11.84
2023-03-24T15:20:41.169Z,11.98
2023-03-24T15:23:24.970Z,12.15
2023-03-24T15:26:18.462Z,12.25
2023-03-24T15:29:10.067Z,11.33
2023-03-24T15:31:50.752Z,11.90
2023-03-24T15:34:53.752Z,12.28
2023-03-24T15:37:54.039Z,11.32
2023-03-24T15:41:04.975Z,12.11
2023-03-24T15:43:57.189Z,12.19
2023-03-24T15:46:45.684Z,12.06
2023-03-24T15:49:33.963Z,12.28
2023-03-24T15:52:21.274Z,12.27
2023-03-24T15:55:23.237Z,12.29
2023-03-24T15:58:08.225Z,11.94
2023-03-24T16:00:56.499Z,12.06
2023-03-24T16:03:43.649Z,11.39
2023-03-24T16:06:34.280Z,11.49
2023-03-24T16:09:10.894Z,12.33
2023-03-24T16:11:48.174Z,12.37
2023-03-24T16:14:33.489Z,12.33
2023-03-24T16:17:04.152Z,12.31
2023-03-24T16:19:32.917Z,12.23
2023-03-24T16:22:01.467Z,12.12
2023-03-24T16:24:31.076Z,12.11
2023-03-24T16:26:59.468Z,12.08
2023-03-24T16:29:30.529Z,11.92
2023-03-24T16:31:59.061Z,12.12
2023-03-24T16:34:27.394Z,12.14
2023-03-24T16:36:56.767Z,12.21
2023-03-24T16:39:27.405Z,12.21
2023-03-24T16:41:57.807Z,12.21
2023-03-24T16:44:26.688Z,12.26
2023-03-24T16:46:56.635Z,12.20
2023-03-24T16:49:26.670Z,12.03
2023-03-24T16:51:55.068Z,12.25
2023-03-24T16:54:23.928Z,12.22
2023-03-24T16:56:52.420Z,12.25
2023-03-24T16:59:22.712Z,12.33
2023-03-24T17:01:54.296Z,12.15
2023-03-24T17:04:29.222Z,11.97
2023-03-24T17:06:58.040Z,12.08
2023-03-24T17:09:28.710Z,12.15
2023-03-24T17:11:58.920Z,12.17
2023-03-24T17:14:30.997Z,12.11
2023-03-24T17:17:05.043Z,12.18
2023-03-24T17:19:33.380Z,12.10
2023-03-24T17:22:04.067Z,12.05
2023-03-24T17:24:35.905Z,11.93
2023-03-24T17:27:05.165Z,12.03
2023-03-24T17:29:36.805Z,11.95
2023-03-24T17:32:05.055Z,11.82
2023-03-24T17:34:33.370Z,11.96
2023-03-24T17:37:01.742Z,11.94
2023-03-24T17:39:29.997Z,11.98
2023-03-24T17:42:01.636Z,11.77
2023-03-24T17:44:30.173Z,12.03
2023-03-24T17:47:01.298Z,12.04
2023-03-24T17:49:30.310Z,11.92
2023-03-24T17:51:58.792Z,12.01
2023-03-24T17:54:28.369Z,12.03
2023-03-24T17:56:59.572Z,11.96
2023-03-24T17:59:28.543Z,11.82
2023-03-24T18:01:56.941Z,11.77
2023-03-24T18:04:33.023Z,11.75
2023-03-24T18:07:02.732Z,11.68
2023-03-24T18:09:33.754Z,11.51
2023-03-24T18:12:02.125Z,11.83
2023-03-24T18:14:33.439Z,11.86
2023-03-24T18:17:01.862Z,11.87
2023-03-24T18:19:31.903Z,11.93
2023-03-24T18:22:00.353Z,11.90
2023-03-24T18:24:33.198Z,11.81
2023-03-24T18:30:40.211Z,11.58
2023-03-24T18:34:18.972Z,11.47
2023-03-24T18:37:16.045Z,10.99
2023-03-24T18:40:02.572Z,11.18
2023-03-24T18:42:45.552Z,10.55
2023-03-24T18:45:36.363Z,11.00
2023-03-24T18:48:23.332Z,10.80
2023-03-24T18:51:12.657Z,10.76
2023-03-24T18:54:11.853Z,11.57
2023-03-24T18:56:49.799Z,11.03
2023-03-24T19:00:03.933Z,10.40
2023-03-24T19:06:29.050Z,11.06
2023-03-24T19:13:15.846Z,11.49
2023-03-24T19:16:39.406Z,11.01
2023-03-24T19:20:17.443Z,11.49
2023-03-24T19:22:43.740Z,10.90
2023-03-24T19:26:10.458Z,10.64
2023-03-24T19:29:04.150Z,11.68
2023-03-24T19:32:10.262Z,10.53
2023-03-24T19:35:12.389Z,10.82
2023-03-24T19:38:55.935Z,11.26
2023-03-24T19:41:57.393Z,10.78
2023-03-24T19:45:04.496Z,11.45
2023-03-24T19:47:51.733Z,11.10
2023-03-24T19:50:34.637Z,10.98
2023-03-24T19:53:17.864Z,11.34
2023-03-24T19:55:57.354Z,11.27
2023-03-24T19:59:20.616Z,11.12
2023-03-24T20:02:04.479Z,11.04
2023-03-24T20:05:07.170Z,10.27
2023-03-24T20:08:11.369Z,10.58
2023-03-24T20:11:04.714Z,11.16
2023-03-24T20:14:37.468Z,11.14
2023-03-24T20:17:22.305Z,11.26
2023-03-24T20:19:57.654Z,11.27
2023-03-24T20:22:39.704Z,11.37
2023-03-24T20:25:14.039Z,11.21
2023-03-24T20:28:11.566Z,11.40
2023-03-24T20:31:01.357Z,11.28
2023-03-24T20:33:45.113Z,11.54
2023-03-24T20:36:29.519Z,11.24
2023-03-24T20:39:07.658Z,10.89
2023-03-24T20:41:36.443Z,11.39
2023-03-24T20:44:16.438Z,11.20
2023-03-24T20:47:08.174Z,11.43
2023-03-24T20:49:47.742Z,10.55
2023-03-24T20:52:51.809Z,11.34
2023-03-24T20:55:26.144Z,11.09
2023-03-24T20:58:08.593Z,11.33
2023-03-24T21:00:43.295Z,11.27
2023-03-24T21:03:16.509Z,11.41
2023-03-24T21:06:08.102Z,11.35
2023-03-24T21:08:49.887Z,11.42
2023-03-24T21:11:28.979Z,11.03
2023-03-24T21:14:11.143Z,11.61
2023-03-24T21:17:02.870Z,11.45
2023-03-24T21:19:33.040Z,11.00
2023-03-24T21:22:15.515Z,11.08
2023-03-24T21:25:02.190Z,11.41
2023-03-24T21:27:58.375Z,11.34
2023-03-24T21:30:44.834Z,11.49
2023-03-24T21:33:33.369Z,10.84
2023-03-24T21:36:08.414Z,11.53
2023-03-24T21:38:53.722Z,11.36
2023-03-24T21:41:33.262Z,10.96
2023-03-24T21:44:04.832Z,11.28
2023-03-24T21:46:35.288Z,11.37
2023-03-24T21:49:18.228Z,10.43
2023-03-24T21:51:57.739Z,10.99
2023-03-24T21:55:06.344Z,11.51
2023-03-24T21:58:17.919Z,10.64
2023-03-24T22:04:10.864Z,11.00
2023-03-24T22:06:49.741Z,11.42
2023-03-24T22:09:41.868Z,10.56
2023-03-24T22:12:39.383Z,11.37
2023-03-24T22:15:10.906Z,11.50
2023-03-24T22:17:40.117Z,11.54
2023-03-24T22:20:09.897Z,11.53
2023-03-24T22:22:38.546Z,11.58
2023-03-24T22:25:09.623Z,11.57
2023-03-24T22:27:38.415Z,11.53
2023-03-24T22:30:10.138Z,11.56
2023-03-24T22:32:39.005Z,11.55
2023-03-24T22:35:08.935Z,11.49
2023-03-24T22:37:37.152Z,11.45
2023-03-24T22:40:06.921Z,11.33
2023-03-24T22:42:35.552Z,11.42
2023-03-24T22:45:03.723Z,11.49
2023-03-24T22:47:33.486Z,11.38
2023-03-24T22:50:01.779Z,11.38
2023-03-24T22:52:29.957Z,11.39
2023-03-24T22:55:01.427Z,11.37
2023-03-24T22:57:29.655Z,11.39
2023-03-24T23:00:02.008Z,11.34
2023-03-24T23:02:31.118Z,11.19
2023-03-24T23:05:01.003Z,11.25
2023-03-24T23:07:29.745Z,11.25
2023-03-24T23:10:00.477Z,11.20
2023-03-24T23:12:29.272Z,11.23
2023-03-24T23:14:57.627Z,11.16
2023-03-24T23:17:29.158Z,11.15
2023-03-24T23:19:57.775Z,11.16
2023-03-24T23:22:27.928Z,11.11
2023-03-24T23:25:01.910Z,11.09
2023-03-24T23:27:35.120Z,11.16
2023-03-24T23:30:03.329Z,11.22
2023-03-24T23:32:34.243Z,11.20
2023-03-24T23:35:03.716Z,11.19
2023-03-24T23:37:34.251Z,11.34
2023-03-24T23:40:09.633Z,11.24
2023-03-24T23:42:38.399Z,11.27
2023-03-24T23:45:08.064Z,11.19
2023-03-24T23:47:37.595Z,11.23
2023-03-24T23:50:07.415Z,11.19
2023-03-24T23:52:37.465Z,11.19
2023-03-24T23:55:06.388Z,11.11
2023-03-24T23:57:34.535Z,11.08
